Weather History for KAQP - November, 2012

Change the Weather History Date:

Wednesday, November 21, 2012

  Actual Average Record
Temperature  
Mean Temperature 46 °F -  
Max Temperature 62 °F 34 °F 62 °F (2012)
Min Temperature 30 °F 18 °F -4 °F (1996)
Degree Days  
Heating Degree Days 19    
Moisture  
Dew Point 34 °F    
Average Humidity 63    
Maximum Humidity 93    
Minimum Humidity 37    
Precipitation  
Precipitation 0.00 in - - ()
Sea Level Pressure  
Sea Level Pressure 29.78 in    
Wind  
Wind Speed 5 mph (SSE)    
Max Wind Speed 12 mph    
Max Gust Speed 18 mph    
Visibility 10 miles    
Events      
Averages and records for this station are not official NWS values.
T = Trace of Precipitation, MM = Missing Value Source: NWS Daily Summary

Daily Weather History Graph

Daily Weather History Graph

Search for Another Location

Airport or City:

Trip Planner

Search our weather history database for the weather conditions in past years. The results will help you decide how hot, cold, wet, or windy it might be!

Date:

Astronomy

Nov. 21, 2012 Rise Set
Actual Time 7:31 AM CST 4:48 PM CST
Civil Twilight 6:58 AM CST 5:21 PM CST
Nautical Twilight 6:22 AM CST 5:57 PM CST
Astronomical Twilight 5:47 AM CST 6:32 PM CST
Moon 1:21 PM CST (11/21) 12:33 AM CST (11/21)
Length of Visible Light 10h 22m
Length of Day
9h 17m
First Quarter, 62% of the Moon is Illuminated
Nov 21
First Quarter
Nov 28
Full
Dec 6
Last Quarter
Dec 13
New
Dec 19
First Quarter

Hourly Weather History & Observations

Time (CST) Temp. Windchill Dew Point Humidity Pressure Visibility Wind Dir Wind Speed Gust Speed Precip Events Conditions
12:13 AM 35.6 °F 31.7 °F 28.4 °F 75% 29.92 in 10.0 mi ESE 4.6 mph - N/A   Clear
12:33 AM 35.6 °F 30.7 °F 28.4 °F 75% 29.91 in 10.0 mi ESE 5.8 mph - N/A   Clear
12:53 AM 35.6 °F 31.7 °F 28.4 °F 75% 29.91 in 10.0 mi SE 4.6 mph - N/A   Clear
1:13 AM 33.8 °F 30.8 °F 28.4 °F 81% 29.91 in 10.0 mi SE 3.5 mph - N/A   Clear
1:33 AM 33.8 °F 29.6 °F 28.4 °F 81% 29.90 in 10.0 mi SSE 4.6 mph - N/A   Clear
1:54 AM 35.6 °F 32.8 °F 30.2 °F 81% 29.90 in 10.0 mi South 3.5 mph - N/A   Clear
2:13 AM 33.8 °F 29.6 °F 28.4 °F 81% 29.90 in 10.0 mi South 4.6 mph - N/A   Clear
2:33 AM 35.6 °F 32.8 °F 30.2 °F 81% 29.91 in 10.0 mi SW 3.5 mph - N/A   Clear
2:53 AM 30.2 °F - 26.6 °F 86% 29.91 in 10.0 mi Calm Calm - N/A   Clear
3:13 AM 30.2 °F - 28.4 °F 93% 29.90 in 10.0 mi Calm Calm - N/A   Clear
3:33 AM 30.2 °F - 26.6 °F 86% 29.91 in 10.0 mi Calm Calm - N/A   Clear
3:53 AM 30.2 °F - 28.4 °F 93% 29.91 in 10.0 mi Calm Calm - N/A   Clear
4:13 AM 30.2 °F - 28.4 °F 93% 29.91 in 10.0 mi Calm Calm - N/A   Clear
4:34 AM 30.2 °F 26.7 °F 26.6 °F 86% 29.90 in 10.0 mi SSE 3.5 mph - N/A   Clear
4:54 AM 33.8 °F 30.8 °F 30.2 °F 87% 29.90 in 10.0 mi South 3.5 mph - N/A   Clear
5:13 AM 33.8 °F 30.8 °F 30.2 °F 87% 29.90 in 10.0 mi South 3.5 mph - N/A   Clear
5:33 AM 33.8 °F - 30.2 °F 87% 29.91 in 10.0 mi Calm Calm - N/A   Clear
5:53 AM 30.2 °F - 28.4 °F 93% 29.90 in 10.0 mi Calm Calm - N/A   Clear
6:13 AM 33.8 °F 29.6 °F 30.2 °F 87% 29.90 in 10.0 mi SSW 4.6 mph - N/A   Clear
6:34 AM 35.6 °F - 30.2 °F 81% 29.90 in 10.0 mi Calm Calm - N/A   Clear
6:53 AM 33.8 °F - 30.2 °F 87% 29.89 in 10.0 mi Calm Calm - N/A   Clear
7:13 AM 30.2 °F 26.7 °F 28.4 °F 93% 29.90 in 10.0 mi South 3.5 mph - N/A   Clear
7:33 AM 37.4 °F 32.1 °F 33.8 °F 87% 29.90 in 10.0 mi South 6.9 mph - N/A   Clear
7:53 AM 39.2 °F 37.0 °F 33.8 °F 81% 29.90 in 10.0 mi South 3.5 mph - N/A   Clear
8:13 AM 35.6 °F - 32.0 °F 87% 29.90 in 10.0 mi Calm Calm - N/A   Clear
8:34 AM 35.6 °F 31.7 °F 33.8 °F 93% 29.89 in 10.0 mi SSE 4.6 mph - N/A   Clear
8:53 AM 41.0 °F 39.0 °F 35.6 °F 81% 29.90 in 10.0 mi SSE 3.5 mph - N/A   Clear
9:14 AM 42.8 °F - 35.6 °F 76% 29.89 in 10.0 mi Calm Calm - N/A   Clear
9:33 AM 44.6 °F - 35.6 °F 71% 29.89 in 10.0 mi Calm Calm - N/A   Clear
9:53 AM 44.6 °F 42.2 °F 35.6 °F 71% 29.87 in 10.0 mi SSE 4.6 mph - N/A   Clear
10:13 AM 46.4 °F 44.3 °F 35.6 °F 66% 29.87 in 10.0 mi SSE 4.6 mph - N/A   Clear
10:54 AM 51.8 °F - 35.6 °F 54% 29.86 in 10.0 mi SE 4.6 mph - N/A   Clear
11:13 AM 53.6 °F - 35.6 °F 51% 29.85 in 10.0 mi SE 5.8 mph - N/A   Clear
11:33 AM 55.4 °F - 35.6 °F 47% 29.83 in 10.0 mi SSE 5.8 mph - N/A   Clear
11:53 AM 55.4 °F - 35.6 °F 47% 29.83 in 10.0 mi South 8.1 mph - N/A   Clear
12:13 PM 57.2 °F - 35.6 °F 44% 29.82 in 10.0 mi SSE 9.2 mph - N/A   Clear
12:33 PM 57.2 °F - 35.6 °F 44% 29.80 in 10.0 mi SSE 9.2 mph - N/A   Clear
12:53 PM 59.0 °F - 37.4 °F 45% 29.79 in 10.0 mi SE 9.2 mph - N/A   Clear
1:13 PM 60.8 °F - 37.4 °F 42% 29.79 in 10.0 mi SE 9.2 mph - N/A   Clear
1:33 PM 62.6 °F - 37.4 °F 39% 29.78 in 10.0 mi SE 10.4 mph - N/A   Clear
1:54 PM 62.6 °F - 37.4 °F 39% 29.76 in 10.0 mi SE 9.2 mph 18.4 mph N/A   Clear
2:18 PM 62.6 °F - 35.6 °F 37% 29.75 in 10.0 mi SSE 10.4 mph - N/A   Clear
2:33 PM 62.6 °F - 35.6 °F 37% 29.74 in 10.0 mi SSE 9.2 mph - N/A   Clear
2:53 PM 62.6 °F - 35.6 °F 37% 29.73 in 10.0 mi SSE 11.5 mph - N/A   Clear
3:13 PM 60.8 °F - 35.6 °F 39% 29.72 in 10.0 mi SE 11.5 mph - N/A   Clear
3:34 PM 62.6 °F - 35.6 °F 37% 29.71 in 5.0 mi SE 10.4 mph - N/A   Haze
3:58 PM 59.0 °F - 35.6 °F 42% 29.71 in 10.0 mi ESE 6.9 mph - N/A   Clear
4:13 PM 57.2 °F - 37.4 °F 48% 29.70 in 10.0 mi ESE 6.9 mph - N/A   Clear
4:33 PM 57.2 °F - 37.4 °F 48% 29.69 in 10.0 mi ESE 8.1 mph - N/A   Clear
4:53 PM 55.4 °F - 37.4 °F 51% 29.68 in 10.0 mi SE 9.2 mph - N/A   Clear
5:13 PM 55.4 °F - 37.4 °F 51% 29.68 in 10.0 mi SE 8.1 mph - N/A   Clear
5:33 PM 55.4 °F - 35.6 °F 47% 29.67 in 10.0 mi SE 6.9 mph - N/A   Clear
5:53 PM 55.4 °F - 35.6 °F 47% 29.66 in 10.0 mi SE 8.1 mph - N/A   Clear
6:13 PM 55.4 °F - 35.6 °F 47% 29.65 in 10.0 mi SE 8.1 mph - N/A   Clear
6:33 PM 55.4 °F - 35.6 °F 47% 29.65 in 10.0 mi SSE 9.2 mph - N/A   Clear
6:54 PM 55.4 °F - 33.8 °F 44% 29.64 in 10.0 mi SSE 8.1 mph - N/A   Clear
7:13 PM 55.4 °F - 33.8 °F 44% 29.64 in 10.0 mi SSE 10.4 mph - N/A   Clear
7:34 PM 55.4 °F - 33.8 °F 44% 29.63 in 10.0 mi South 9.2 mph - N/A   Clear
7:53 PM 57.2 °F - 35.6 °F 44% 29.63 in 10.0 mi South 9.2 mph - N/A   Clear
8:13 PM 55.4 °F - 35.6 °F 47% 29.62 in 10.0 mi South 9.2 mph - N/A   Clear
8:34 PM 55.4 °F - 35.6 °F 47% 29.62 in 10.0 mi South 10.4 mph - N/A   Clear
8:53 PM 55.4 °F - 35.6 °F 47% 29.61 in 10.0 mi South 9.2 mph - N/A   Clear
9:13 PM 53.6 °F - 37.4 °F 54% 29.61 in 10.0 mi South 6.9 mph - N/A   Clear
9:33 PM 53.6 °F - 37.4 °F 54% 29.61 in 10.0 mi South 6.9 mph - N/A   Clear
9:53 PM 55.4 °F - 37.4 °F 51% 29.61 in 10.0 mi South 8.1 mph - N/A   Clear
10:13 PM 53.6 °F - 37.4 °F 54% 29.60 in 10.0 mi South 6.9 mph - N/A   Clear
10:33 PM 55.4 °F - 37.4 °F 51% 29.59 in 10.0 mi South 8.1 mph - N/A   Clear
10:54 PM 55.4 °F - 37.4 °F 51% 29.59 in 10.0 mi South 4.6 mph - N/A   Clear
11:13 PM 53.6 °F - 37.4 °F 54% 29.59 in 10.0 mi SSE 4.6 mph - N/A   Clear
11:33 PM 51.8 °F - 37.4 °F 58% 29.58 in 10.0 mi SSE 6.9 mph - N/A   Clear
11:53 PM 51.8 °F - 37.4 °F 58% 29.57 in 10.0 mi South 5.8 mph - N/A   Clear